sensor_id;sensor_type;location;lat;lon;timestamp;P1;durP1;ratioP1;P2;durP2;ratioP2
62523;SDS011;53689;56.878;60.672;2023-01-04T00:01:44;10.50;;;6.60;;
62523;SDS011;53689;56.878;60.672;2023-01-04T00:04:12;8.65;;;6.03;;
62523;SDS011;53689;56.878;60.672;2023-01-04T00:06:40;9.50;;;6.38;;
62523;SDS011;53689;56.878;60.672;2023-01-04T00:09:08;8.65;;;5.88;;
62523;SDS011;53689;56.878;60.672;2023-01-04T00:11:36;12.07;;;5.93;;
62523;SDS011;53689;56.878;60.672;2023-01-04T00:14:03;9.45;;;5.95;;
62523;SDS011;53689;56.878;60.672;2023-01-04T00:16:31;8.63;;;5.50;;
62523;SDS011;53689;56.878;60.672;2023-01-04T00:19:00;8.75;;;5.57;;
62523;SDS011;53689;56.878;60.672;2023-01-04T00:21:28;8.70;;;5.43;;
62523;SDS011;53689;56.878;60.672;2023-01-04T00:23:58;7.68;;;5.25;;
62523;SDS011;53689;56.878;60.672;2023-01-04T00:26:27;8.32;;;5.80;;
62523;SDS011;53689;56.878;60.672;2023-01-04T00:28:56;9.68;;;5.45;;
62523;SDS011;53689;56.878;60.672;2023-01-04T00:31:26;8.95;;;5.43;;
62523;SDS011;53689;56.878;60.672;2023-01-04T00:33:55;9.10;;;5.50;;
62523;SDS011;53689;56.878;60.672;2023-01-04T00:36:24;8.05;;;5.20;;
62523;SDS011;53689;56.878;60.672;2023-01-04T00:38:52;9.00;;;5.38;;
62523;SDS011;53689;56.878;60.672;2023-01-04T00:41:21;8.13;;;5.57;;
62523;SDS011;53689;56.878;60.672;2023-01-04T00:44:09;8.50;;;5.37;;
62523;SDS011;53689;56.878;60.672;2023-01-04T00:46:38;9.63;;;5.93;;
62523;SDS011;53689;56.878;60.672;2023-01-04T00:49:06;9.63;;;5.38;;
62523;SDS011;53689;56.878;60.672;2023-01-04T00:51:35;7.60;;;5.43;;
62523;SDS011;53689;56.878;60.672;2023-01-04T00:54:05;9.35;;;6.40;;
62523;SDS011;53689;56.878;60.672;2023-01-04T00:59:03;7.93;;;5.65;;
62523;SDS011;53689;56.878;60.672;2023-01-04T01:01:31;8.70;;;5.32;;
62523;SDS011;53689;56.878;60.672;2023-01-04T01:04:00;9.25;;;5.55;;
62523;SDS011;53689;56.878;60.672;2023-01-04T01:06:30;8.32;;;5.65;;
62523;SDS011;53689;56.878;60.672;2023-01-04T01:08:59;9.00;;;6.10;;
62523;SDS011;53689;56.878;60.672;2023-01-04T01:11:27;8.70;;;5.80;;
62523;SDS011;53689;56.878;60.672;2023-01-04T01:13:57;11.10;;;5.80;;
62523;SDS011;53689;56.878;60.672;2023-01-04T01:16:25;9.55;;;5.82;;
62523;SDS011;53689;56.878;60.672;2023-01-04T01:19:12;6.60;;;4.95;;
62523;SDS011;53689;56.878;60.672;2023-01-04T01:21:40;9.48;;;5.65;;
62523;SDS011;53689;56.878;60.672;2023-01-04T01:24:08;10.05;;;5.88;;
62523;SDS011;53689;56.878;60.672;2023-01-04T01:26:40;9.45;;;5.97;;
62523;SDS011;53689;56.878;60.672;2023-01-04T01:29:09;9.95;;;5.50;;
62523;SDS011;53689;56.878;60.672;2023-01-04T01:31:36;9.73;;;6.70;;
62523;SDS011;53689;56.878;60.672;2023-01-04T01:34:05;7.95;;;5.00;;
62523;SDS011;53689;56.878;60.672;2023-01-04T01:36:33;8.00;;;5.57;;
62523;SDS011;53689;56.878;60.672;2023-01-04T01:39:00;10.20;;;5.93;;
62523;SDS011;53689;56.878;60.672;2023-01-04T01:41:29;8.88;;;6.05;;
62523;SDS011;53689;56.878;60.672;2023-01-04T01:43:59;7.63;;;5.55;;
62523;SDS011;53689;56.878;60.672;2023-01-04T01:46:30;8.45;;;6.05;;
62523;SDS011;53689;56.878;60.672;2023-01-04T01:49:05;8.98;;;6.15;;
62523;SDS011;53689;56.878;60.672;2023-01-04T01:51:39;9.20;;;6.03;;
62523;SDS011;53689;56.878;60.672;2023-01-04T01:54:09;9.00;;;5.88;;
62523;SDS011;53689;56.878;60.672;2023-01-04T01:56:39;10.20;;;6.13;;
62523;SDS011;53689;56.878;60.672;2023-01-04T01:59:10;8.93;;;6.03;;
62523;SDS011;53689;56.878;60.672;2023-01-04T02:01:41;8.65;;;5.28;;
62523;SDS011;53689;56.878;60.672;2023-01-04T02:04:10;7.07;;;5.28;;
62523;SDS011;53689;56.878;60.672;2023-01-04T02:06:38;7.15;;;5.18;;
62523;SDS011;53689;56.878;60.672;2023-01-04T02:09:08;9.20;;;5.43;;
62523;SDS011;53689;56.878;60.672;2023-01-04T02:11:36;8.85;;;5.40;;
62523;SDS011;53689;56.878;60.672;2023-01-04T02:14:03;7.78;;;5.88;;
62523;SDS011;53689;56.878;60.672;2023-01-04T02:16:35;8.98;;;5.57;;
62523;SDS011;53689;56.878;60.672;2023-01-04T02:19:24;8.68;;;5.72;;
62523;SDS011;53689;56.878;60.672;2023-01-04T02:22:11;9.90;;;5.97;;
62523;SDS011;53689;56.878;60.672;2023-01-04T02:25:06;8.27;;;5.85;;
62523;SDS011;53689;56.878;60.672;2023-01-04T02:27:52;8.98;;;6.00;;
62523;SDS011;53689;56.878;60.672;2023-01-04T02:33:33;9.77;;;6.03;;
62523;SDS011;53689;56.878;60.672;2023-01-04T02:36:10;9.90;;;5.82;;
62523;SDS011;53689;56.878;60.672;2023-01-04T02:38:47;10.32;;;6.32;;
62523;SDS011;53689;56.878;60.672;2023-01-04T02:41:27;8.13;;;5.68;;
62523;SDS011;53689;56.878;60.672;2023-01-04T02:43:58;10.98;;;5.90;;
62523;SDS011;53689;56.878;60.672;2023-01-04T02:46:33;8.73;;;6.22;;
62523;SDS011;53689;56.878;60.672;2023-01-04T02:49:06;7.97;;;5.30;;
62523;SDS011;53689;56.878;60.672;2023-01-04T02:51:34;7.60;;;4.77;;
62523;SDS011;53689;56.878;60.672;2023-01-04T02:54:03;8.38;;;5.80;;
62523;SDS011;53689;56.878;60.672;2023-01-04T02:56:37;8.63;;;5.28;;
62523;SDS011;53689;56.878;60.672;2023-01-04T02:59:39;11.05;;;5.68;;
62523;SDS011;53689;56.878;60.672;2023-01-04T03:02:32;9.02;;;5.88;;
62523;SDS011;53689;56.878;60.672;2023-01-04T03:05:22;10.27;;;6.05;;
62523;SDS011;53689;56.878;60.672;2023-01-04T03:07:57;8.13;;;5.25;;
62523;SDS011;53689;56.878;60.672;2023-01-04T03:10:33;9.98;;;6.22;;
62523;SDS011;53689;56.878;60.672;2023-01-04T03:13:07;8.85;;;5.70;;
62523;SDS011;53689;56.878;60.672;2023-01-04T03:15:43;7.55;;;5.25;;
62523;SDS011;53689;56.878;60.672;2023-01-04T03:18:17;10.93;;;6.25;;
62523;SDS011;53689;56.878;60.672;2023-01-04T03:20:49;8.23;;;5.80;;
62523;SDS011;53689;56.878;60.672;2023-01-04T03:23:18;8.35;;;4.07;;
62523;SDS011;53689;56.878;60.672;2023-01-04T03:25:52;7.55;;;5.30;;
62523;SDS011;53689;56.878;60.672;2023-01-04T03:28:25;7.97;;;5.38;;
62523;SDS011;53689;56.878;60.672;2023-01-04T03:30:57;8.70;;;5.63;;
62523;SDS011;53689;56.878;60.672;2023-01-04T03:33:29;10.07;;;6.47;;
62523;SDS011;53689;56.878;60.672;2023-01-04T03:36:02;8.82;;;5.82;;
62523;SDS011;53689;56.878;60.672;2023-01-04T03:38:38;10.05;;;6.35;;
62523;SDS011;53689;56.878;60.672;2023-01-04T03:41:13;8.02;;;5.68;;
62523;SDS011;53689;56.878;60.672;2023-01-04T03:43:49;10.80;;;5.82;;
62523;SDS011;53689;56.878;60.672;2023-01-04T03:46:25;8.75;;;5.55;;
62523;SDS011;53689;56.878;60.672;2023-01-04T03:48:59;9.73;;;6.32;;
62523;SDS011;53689;56.878;60.672;2023-01-04T03:51:34;8.85;;;5.90;;
62523;SDS011;53689;56.878;60.672;2023-01-04T03:54:04;8.30;;;5.70;;
62523;SDS011;53689;56.878;60.672;2023-01-04T03:56:36;8.55;;;5.50;;
62523;SDS011;53689;56.878;60.672;2023-01-04T03:59:08;11.98;;;6.47;;
62523;SDS011;53689;56.878;60.672;2023-01-04T04:01:36;8.45;;;6.28;;
62523;SDS011;53689;56.878;60.672;2023-01-04T04:04:04;10.00;;;6.28;;
62523;SDS011;53689;56.878;60.672;2023-01-04T04:06:32;9.80;;;5.72;;
62523;SDS011;53689;56.878;60.672;2023-01-04T04:09:01;10.80;;;6.65;;
62523;SDS011;53689;56.878;60.672;2023-01-04T04:11:28;10.65;;;6.57;;
62523;SDS011;53689;56.878;60.672;2023-01-04T04:13:56;10.35;;;6.85;;
62523;SDS011;53689;56.878;60.672;2023-01-04T04:16:24;9.52;;;6.15;;
62523;SDS011;53689;56.878;60.672;2023-01-04T04:18:52;9.77;;;5.78;;
62523;SDS011;53689;56.878;60.672;2023-01-04T04:21:20;9.88;;;5.80;;
62523;SDS011;53689;56.878;60.672;2023-01-04T04:23:49;8.38;;;5.47;;
62523;SDS011;53689;56.878;60.672;2023-01-04T04:26:17;8.15;;;5.80;;
62523;SDS011;53689;56.878;60.672;2023-01-04T04:28:44;9.68;;;6.45;;
62523;SDS011;53689;56.878;60.672;2023-01-04T04:31:12;9.43;;;5.60;;
62523;SDS011;53689;56.878;60.672;2023-01-04T04:33:39;8.38;;;5.70;;
62523;SDS011;53689;56.878;60.672;2023-01-04T04:36:07;9.45;;;5.43;;
62523;SDS011;53689;56.878;60.672;2023-01-04T04:38:35;8.45;;;5.15;;
62523;SDS011;53689;56.878;60.672;2023-01-04T04:41:08;9.85;;;5.63;;
62523;SDS011;53689;56.878;60.672;2023-01-04T04:43:36;8.70;;;6.35;;
62523;SDS011;53689;56.878;60.672;2023-01-04T04:46:04;7.68;;;5.47;;
62523;SDS011;53689;56.878;60.672;2023-01-04T04:48:32;11.20;;;6.72;;
62523;SDS011;53689;56.878;60.672;2023-01-04T04:51:00;8.77;;;5.63;;
62523;SDS011;53689;56.878;60.672;2023-01-04T04:53:27;9.88;;;6.07;;
62523;SDS011;53689;56.878;60.672;2023-01-04T04:55:55;8.90;;;5.90;;
62523;SDS011;53689;56.878;60.672;2023-01-04T04:58:24;8.88;;;6.22;;
62523;SDS011;53689;56.878;60.672;2023-01-04T05:00:51;9.40;;;6.20;;
62523;SDS011;53689;56.878;60.672;2023-01-04T05:03:19;7.60;;;5.57;;
62523;SDS011;53689;56.878;60.672;2023-01-04T05:05:46;8.98;;;5.72;;
62523;SDS011;53689;56.878;60.672;2023-01-04T05:08:14;9.00;;;5.85;;
62523;SDS011;53689;56.878;60.672;2023-01-04T05:10:41;9.00;;;6.40;;
62523;SDS011;53689;56.878;60.672;2023-01-04T05:13:09;10.35;;;6.00;;
62523;SDS011;53689;56.878;60.672;2023-01-04T05:15:40;8.43;;;5.75;;
62523;SDS011;53689;56.878;60.672;2023-01-04T05:18:11;8.15;;;5.65;;
62523;SDS011;53689;56.878;60.672;2023-01-04T05:20:40;9.23;;;5.60;;
62523;SDS011;53689;56.878;60.672;2023-01-04T05:23:09;7.95;;;5.43;;
62523;SDS011;53689;56.878;60.672;2023-01-04T05:25:38;7.70;;;5.15;;
62523;SDS011;53689;56.878;60.672;2023-01-04T05:28:06;8.00;;;5.00;;
62523;SDS011;53689;56.878;60.672;2023-01-04T05:30:34;10.05;;;6.13;;
62523;SDS011;53689;56.878;60.672;2023-01-04T05:33:04;7.20;;;5.13;;
62523;SDS011;53689;56.878;60.672;2023-01-04T05:35:32;10.95;;;6.43;;
62523;SDS011;53689;56.878;60.672;2023-01-04T05:38:00;9.23;;;6.03;;
62523;SDS011;53689;56.878;60.672;2023-01-04T05:40:27;9.38;;;6.40;;
62523;SDS011;53689;56.878;60.672;2023-01-04T05:42:55;8.85;;;5.55;;
62523;SDS011;53689;56.878;60.672;2023-01-04T05:45:23;11.77;;;6.68;;
62523;SDS011;53689;56.878;60.672;2023-01-04T05:47:50;8.85;;;5.88;;
62523;SDS011;53689;56.878;60.672;2023-01-04T05:50:20;9.32;;;6.18;;
62523;SDS011;53689;56.878;60.672;2023-01-04T05:52:49;10.82;;;6.35;;
62523;SDS011;53689;56.878;60.672;2023-01-04T05:55:16;8.60;;;6.40;;
62523;SDS011;53689;56.878;60.672;2023-01-04T05:57:44;11.00;;;6.20;;
62523;SDS011;53689;56.878;60.672;2023-01-04T06:00:13;12.43;;;6.65;;
62523;SDS011;53689;56.878;60.672;2023-01-04T06:02:41;11.38;;;7.13;;
62523;SDS011;53689;56.878;60.672;2023-01-04T06:05:10;10.52;;;6.53;;
62523;SDS011;53689;56.878;60.672;2023-01-04T06:07:40;9.48;;;6.05;;
62523;SDS011;53689;56.878;60.672;2023-01-04T06:10:09;10.40;;;6.43;;
62523;SDS011;53689;56.878;60.672;2023-01-04T06:12:37;9.10;;;6.43;;
62523;SDS011;53689;56.878;60.672;2023-01-04T06:15:08;11.07;;;7.60;;
62523;SDS011;53689;56.878;60.672;2023-01-04T06:17:37;9.77;;;6.57;;
62523;SDS011;53689;56.878;60.672;2023-01-04T06:20:06;10.95;;;6.57;;
62523;SDS011;53689;56.878;60.672;2023-01-04T06:25:04;9.68;;;6.50;;
62523;SDS011;53689;56.878;60.672;2023-01-04T06:27:31;8.88;;;6.05;;
62523;SDS011;53689;56.878;60.672;2023-01-04T06:29:59;10.25;;;6.20;;
62523;SDS011;53689;56.878;60.672;2023-01-04T06:32:27;9.50;;;6.32;;
62523;SDS011;53689;56.878;60.672;2023-01-04T06:34:55;9.32;;;5.82;;
62523;SDS011;53689;56.878;60.672;2023-01-04T06:37:22;8.85;;;5.88;;
62523;SDS011;53689;56.878;60.672;2023-01-04T06:39:50;9.20;;;6.07;;
62523;SDS011;53689;56.878;60.672;2023-01-04T06:42:19;9.02;;;6.10;;
62523;SDS011;53689;56.878;60.672;2023-01-04T06:44:46;9.97;;;6.20;;
62523;SDS011;53689;56.878;60.672;2023-01-04T06:47:14;8.75;;;5.82;;
62523;SDS011;53689;56.878;60.672;2023-01-04T06:49:42;10.13;;;6.20;;
62523;SDS011;53689;56.878;60.672;2023-01-04T06:52:10;8.80;;;6.00;;
62523;SDS011;53689;56.878;60.672;2023-01-04T06:54:37;10.23;;;6.20;;
62523;SDS011;53689;56.878;60.672;2023-01-04T06:57:05;7.88;;;5.47;;
62523;SDS011;53689;56.878;60.672;2023-01-04T06:59:34;9.48;;;6.28;;
62523;SDS011;53689;56.878;60.672;2023-01-04T07:02:01;9.02;;;5.85;;
62523;SDS011;53689;56.878;60.672;2023-01-04T07:04:30;11.40;;;6.95;;
62523;SDS011;53689;56.878;60.672;2023-01-04T07:06:58;9.00;;;5.75;;
62523;SDS011;53689;56.878;60.672;2023-01-04T07:09:25;10.95;;;6.15;;
62523;SDS011;53689;56.878;60.672;2023-01-04T07:11:53;8.52;;;5.70;;
62523;SDS011;53689;56.878;60.672;2023-01-04T07:14:21;8.27;;;6.05;;
62523;SDS011;53689;56.878;60.672;2023-01-04T07:16:49;9.38;;;6.30;;
62523;SDS011;53689;56.878;60.672;2023-01-04T07:19:17;8.33;;;5.43;;
62523;SDS011;53689;56.878;60.672;2023-01-04T07:21:45;6.63;;;4.82;;
62523;SDS011;53689;56.878;60.672;2023-01-04T07:24:13;6.70;;;4.80;;
62523;SDS011;53689;56.878;60.672;2023-01-04T07:26:40;8.10;;;5.40;;
62523;SDS011;53689;56.878;60.672;2023-01-04T07:29:08;8.10;;;5.20;;
62523;SDS011;53689;56.878;60.672;2023-01-04T07:31:39;8.70;;;5.72;;
62523;SDS011;53689;56.878;60.672;2023-01-04T07:34:08;9.90;;;6.15;;
62523;SDS011;53689;56.878;60.672;2023-01-04T07:36:36;9.32;;;6.03;;
62523;SDS011;53689;56.878;60.672;2023-01-04T07:39:03;9.60;;;5.72;;
62523;SDS011;53689;56.878;60.672;2023-01-04T07:41:32;9.43;;;5.97;;
62523;SDS011;53689;56.878;60.672;2023-01-04T07:43:59;9.63;;;6.10;;
62523;SDS011;53689;56.878;60.672;2023-01-04T07:46:27;11.93;;;6.50;;
62523;SDS011;53689;56.878;60.672;2023-01-04T07:48:54;9.38;;;5.93;;
62523;SDS011;53689;56.878;60.672;2023-01-04T07:51:23;8.60;;;5.78;;
62523;SDS011;53689;56.878;60.672;2023-01-04T07:53:51;10.25;;;6.68;;
62523;SDS011;53689;56.878;60.672;2023-01-04T07:56:20;8.68;;;5.55;;
62523;SDS011;53689;56.878;60.672;2023-01-04T07:58:48;9.60;;;6.30;;
62523;SDS011;53689;56.878;60.672;2023-01-04T08:01:16;10.18;;;6.60;;
62523;SDS011;53689;56.878;60.672;2023-01-04T08:03:45;7.38;;;5.53;;
62523;SDS011;53689;56.878;60.672;2023-01-04T08:06:13;10.40;;;6.90;;
62523;SDS011;53689;56.878;60.672;2023-01-04T08:08:44;11.43;;;6.20;;
62523;SDS011;53689;56.878;60.672;2023-01-04T08:11:12;9.05;;;6.32;;
62523;SDS011;53689;56.878;60.672;2023-01-04T08:13:41;11.15;;;6.10;;
62523;SDS011;53689;56.878;60.672;2023-01-04T08:16:15;11.13;;;6.80;;
62523;SDS011;53689;56.878;60.672;2023-01-04T08:18:45;9.82;;;6.45;;
62523;SDS011;53689;56.878;60.672;2023-01-04T08:21:13;8.70;;;6.00;;
62523;SDS011;53689;56.878;60.672;2023-01-04T08:23:41;7.65;;;5.55;;
62523;SDS011;53689;56.878;60.672;2023-01-04T08:26:10;10.50;;;5.82;;
62523;SDS011;53689;56.878;60.672;2023-01-04T08:28:40;8.55;;;5.88;;
62523;SDS011;53689;56.878;60.672;2023-01-04T08:31:09;10.20;;;5.68;;
62523;SDS011;53689;56.878;60.672;2023-01-04T08:33:38;10.02;;;5.40;;
62523;SDS011;53689;56.878;60.672;2023-01-04T08:36:08;10.48;;;5.68;;
62523;SDS011;53689;56.878;60.672;2023-01-04T08:38:37;9.45;;;6.05;;
62523;SDS011;53689;56.878;60.672;2023-01-04T08:41:28;9.23;;;5.93;;
62523;SDS011;53689;56.878;60.672;2023-01-04T08:44:16;10.93;;;5.85;;
62523;SDS011;53689;56.878;60.672;2023-01-04T08:46:44;8.70;;;5.60;;
62523;SDS011;53689;56.878;60.672;2023-01-04T08:49:11;8.20;;;5.47;;
62523;SDS011;53689;56.878;60.672;2023-01-04T08:51:39;8.20;;;5.55;;
62523;SDS011;53689;56.878;60.672;2023-01-04T08:54:07;10.68;;;5.80;;
62523;SDS011;53689;56.878;60.672;2023-01-04T08:56:37;10.02;;;5.80;;
62523;SDS011;53689;56.878;60.672;2023-01-04T08:59:04;9.93;;;5.65;;
62523;SDS011;53689;56.878;60.672;2023-01-04T09:01:33;10.15;;;5.68;;
62523;SDS011;53689;56.878;60.672;2023-01-04T09:04:01;7.95;;;4.90;;
62523;SDS011;53689;56.878;60.672;2023-01-04T09:06:29;8.80;;;5.30;;
62523;SDS011;53689;56.878;60.672;2023-01-04T09:08:57;11.38;;;6.32;;
62523;SDS011;53689;56.878;60.672;2023-01-04T09:11:25;7.68;;;5.68;;
62523;SDS011;53689;56.878;60.672;2023-01-04T09:13:55;7.93;;;4.50;;
62523;SDS011;53689;56.878;60.672;2023-01-04T09:16:33;8.85;;;4.40;;
62523;SDS011;53689;56.878;60.672;2023-01-04T09:19:02;6.32;;;4.47;;
62523;SDS011;53689;56.878;60.672;2023-01-04T09:21:30;9.68;;;5.13;;
62523;SDS011;53689;56.878;60.672;2023-01-04T09:23:58;10.15;;;4.50;;
62523;SDS011;53689;56.878;60.672;2023-01-04T09:26:25;7.68;;;4.90;;
62523;SDS011;53689;56.878;60.672;2023-01-04T09:28:53;7.22;;;4.35;;
62523;SDS011;53689;56.878;60.672;2023-01-04T09:31:23;8.30;;;4.82;;
62523;SDS011;53689;56.878;60.672;2023-01-04T09:33:52;8.68;;;4.43;;
62523;SDS011;53689;56.878;60.672;2023-01-04T09:36:40;7.38;;;4.72;;
62523;SDS011;53689;56.878;60.672;2023-01-04T09:39:07;8.98;;;4.70;;
62523;SDS011;53689;56.878;60.672;2023-01-04T09:41:46;10.13;;;5.38;;
62523;SDS011;53689;56.878;60.672;2023-01-04T09:44:23;10.73;;;4.90;;
62523;SDS011;53689;56.878;60.672;2023-01-04T09:47:18;11.90;;;5.18;;
62523;SDS011;53689;56.878;60.672;2023-01-04T09:49:53;8.45;;;4.95;;
62523;SDS011;53689;56.878;60.672;2023-01-04T09:52:24;8.27;;;5.35;;
62523;SDS011;53689;56.878;60.672;2023-01-04T09:55:02;9.70;;;4.80;;
62523;SDS011;53689;56.878;60.672;2023-01-04T09:57:55;9.98;;;4.80;;
62523;SDS011;53689;56.878;60.672;2023-01-04T10:00:30;6.93;;;4.25;;
62523;SDS011;53689;56.878;60.672;2023-01-04T10:03:10;8.02;;;4.07;;
62523;SDS011;53689;56.878;60.672;2023-01-04T10:05:42;8.15;;;4.40;;
62523;SDS011;53689;56.878;60.672;2023-01-04T10:08:11;10.48;;;4.57;;
62523;SDS011;53689;56.878;60.672;2023-01-04T10:10:45;7.53;;;4.97;;
62523;SDS011;53689;56.878;60.672;2023-01-04T10:13:19;10.20;;;5.38;;
62523;SDS011;53689;56.878;60.672;2023-01-04T10:16:00;9.75;;;5.10;;
62523;SDS011;53689;56.878;60.672;2023-01-04T10:18:45;11.82;;;4.90;;
62523;SDS011;53689;56.878;60.672;2023-01-04T10:21:39;9.68;;;5.25;;
62523;SDS011;53689;56.878;60.672;2023-01-04T10:24:13;7.68;;;4.82;;
62523;SDS011;53689;56.878;60.672;2023-01-04T10:27:05;9.40;;;5.13;;
62523;SDS011;53689;56.878;60.672;2023-01-04T10:29:39;7.53;;;4.72;;
62523;SDS011;53689;56.878;60.672;2023-01-04T10:32:23;9.40;;;5.38;;
62523;SDS011;53689;56.878;60.672;2023-01-04T10:35:00;9.68;;;4.63;;
62523;SDS011;53689;56.878;60.672;2023-01-04T10:37:39;8.15;;;5.00;;
62523;SDS011;53689;56.878;60.672;2023-01-04T10:40:10;7.80;;;5.22;;
62523;SDS011;53689;56.878;60.672;2023-01-04T10:42:42;7.90;;;5.13;;
62523;SDS011;53689;56.878;60.672;2023-01-04T10:45:17;10.50;;;5.30;;
62523;SDS011;53689;56.878;60.672;2023-01-04T10:47:54;9.90;;;5.75;;
62523;SDS011;53689;56.878;60.672;2023-01-04T10:50:29;11.18;;;6.10;;
62523;SDS011;53689;56.878;60.672;2023-01-04T10:53:03;10.25;;;5.20;;
62523;SDS011;53689;56.878;60.672;2023-01-04T10:55:38;8.98;;;5.78;;
62523;SDS011;53689;56.878;60.672;2023-01-04T10:58:35;10.93;;;5.38;;
62523;SDS011;53689;56.878;60.672;2023-01-04T11:01:07;10.10;;;5.68;;
62523;SDS011;53689;56.878;60.672;2023-01-04T11:03:41;7.57;;;5.03;;
62523;SDS011;53689;56.878;60.672;2023-01-04T11:06:16;9.02;;;5.32;;
62523;SDS011;53689;56.878;60.672;2023-01-04T11:08:48;12.02;;;5.40;;
62523;SDS011;53689;56.878;60.672;2023-01-04T11:11:21;11.38;;;5.38;;
62523;SDS011;53689;56.878;60.672;2023-01-04T11:13:53;9.43;;;5.38;;
62523;SDS011;53689;56.878;60.672;2023-01-04T11:16:21;8.70;;;5.57;;
62523;SDS011;53689;56.878;60.672;2023-01-04T11:18:50;11.30;;;5.82;;
62523;SDS011;53689;56.878;60.672;2023-01-04T11:21:19;8.23;;;5.10;;
62523;SDS011;53689;56.878;60.672;2023-01-04T11:23:52;11.60;;;6.13;;
62523;SDS011;53689;56.878;60.672;2023-01-04T11:26:43;9.25;;;4.90;;
62523;SDS011;53689;56.878;60.672;2023-01-04T11:29:16;10.93;;;5.82;;
62523;SDS011;53689;56.878;60.672;2023-01-04T11:31:56;8.48;;;5.30;;
62523;SDS011;53689;56.878;60.672;2023-01-04T11:34:43;7.32;;;4.55;;
62523;SDS011;53689;56.878;60.672;2023-01-04T11:37:23;12.63;;;7.88;;
62523;SDS011;53689;56.878;60.672;2023-01-04T11:42:49;9.13;;;6.72;;
62523;SDS011;53689;56.878;60.672;2023-01-04T11:45:19;11.10;;;7.00;;
62523;SDS011;53689;56.878;60.672;2023-01-04T11:47:50;9.40;;;6.40;;
62523;SDS011;53689;56.878;60.672;2023-01-04T11:50:34;11.35;;;6.97;;
62523;SDS011;53689;56.878;60.672;2023-01-04T11:56:11;10.88;;;5.72;;
62523;SDS011;53689;56.878;60.672;2023-01-04T11:58:42;9.88;;;5.60;;
62523;SDS011;53689;56.878;60.672;2023-01-04T12:01:18;12.18;;;6.10;;
62523;SDS011;53689;56.878;60.672;2023-01-04T12:03:48;9.43;;;5.95;;
62523;SDS011;53689;56.878;60.672;2023-01-04T12:06:19;10.18;;;5.68;;
62523;SDS011;53689;56.878;60.672;2023-01-04T12:08:51;10.88;;;6.47;;
62523;SDS011;53689;56.878;60.672;2023-01-04T12:11:20;9.25;;;6.10;;
62523;SDS011;53689;56.878;60.672;2023-01-04T12:13:51;10.80;;;5.90;;
62523;SDS011;53689;56.878;60.672;2023-01-04T12:16:21;10.00;;;6.18;;
62523;SDS011;53689;56.878;60.672;2023-01-04T12:18:59;9.93;;;5.68;;
62523;SDS011;53689;56.878;60.672;2023-01-04T12:21:30;10.35;;;6.45;;
62523;SDS011;53689;56.878;60.672;2023-01-04T12:24:00;9.68;;;5.88;;
62523;SDS011;53689;56.878;60.672;2023-01-04T12:26:38;12.43;;;6.80;;
62523;SDS011;53689;56.878;60.672;2023-01-04T12:41:14;10.57;;;6.60;;
62523;SDS011;53689;56.878;60.672;2023-01-04T12:43:41;10.27;;;6.93;;
62523;SDS011;53689;56.878;60.672;2023-01-04T12:46:31;11.20;;;6.65;;
62523;SDS011;53689;56.878;60.672;2023-01-04T13:04:50;9.25;;;6.53;;
62523;SDS011;53689;56.878;60.672;2023-01-04T13:07:40;12.60;;;7.28;;
62523;SDS011;53689;56.878;60.672;2023-01-04T13:10:18;10.02;;;7.18;;
62523;SDS011;53689;56.878;60.672;2023-01-04T13:12:58;12.93;;;8.00;;
62523;SDS011;53689;56.878;60.672;2023-01-04T13:15:39;14.90;;;8.18;;
62523;SDS011;53689;56.878;60.672;2023-01-04T13:21:02;9.40;;;7.05;;
62523;SDS011;53689;56.878;60.672;2023-01-04T13:23:36;11.95;;;7.93;;
62523;SDS011;53689;56.878;60.672;2023-01-04T13:29:04;11.60;;;7.80;;
62523;SDS011;53689;56.878;60.672;2023-01-04T13:31:41;12.05;;;8.52;;
62523;SDS011;53689;56.878;60.672;2023-01-04T13:34:19;12.70;;;7.60;;
62523;SDS011;53689;56.878;60.672;2023-01-04T13:36:57;11.85;;;6.80;;
62523;SDS011;53689;56.878;60.672;2023-01-04T13:39:42;10.90;;;6.95;;
62523;SDS011;53689;56.878;60.672;2023-01-04T13:42:13;13.10;;;7.57;;
62523;SDS011;53689;56.878;60.672;2023-01-04T13:44:50;13.38;;;8.00;;
62523;SDS011;53689;56.878;60.672;2023-01-04T13:47:48;12.95;;;8.32;;
62523;SDS011;53689;56.878;60.672;2023-01-04T13:50:29;12.95;;;9.23;;
62523;SDS011;53689;56.878;60.672;2023-01-04T13:52:59;12.35;;;8.00;;
62523;SDS011;53689;56.878;60.672;2023-01-04T13:55:34;13.77;;;8.68;;
62523;SDS011;53689;56.878;60.672;2023-01-04T13:58:04;10.75;;;7.95;;
62523;SDS011;53689;56.878;60.672;2023-01-04T14:06:02;12.70;;;7.80;;
62523;SDS011;53689;56.878;60.672;2023-01-04T14:08:39;12.20;;;8.40;;
62523;SDS011;53689;56.878;60.672;2023-01-04T14:11:13;12.07;;;8.15;;
62523;SDS011;53689;56.878;60.672;2023-01-04T14:13:44;13.05;;;9.50;;
62523;SDS011;53689;56.878;60.672;2023-01-04T14:16:13;11.60;;;8.43;;
62523;SDS011;53689;56.878;60.672;2023-01-04T14:18:41;12.23;;;8.57;;
62523;SDS011;53689;56.878;60.672;2023-01-04T14:21:15;11.68;;;8.10;;
62523;SDS011;53689;56.878;60.672;2023-01-04T14:23:43;11.30;;;8.35;;
62523;SDS011;53689;56.878;60.672;2023-01-04T14:28:57;11.20;;;8.50;;
62523;SDS011;53689;56.878;60.672;2023-01-04T14:31:25;11.20;;;7.72;;
62523;SDS011;53689;56.878;60.672;2023-01-04T14:33:58;11.82;;;7.72;;
62523;SDS011;53689;56.878;60.672;2023-01-04T14:36:35;11.02;;;7.18;;
62523;SDS011;53689;56.878;60.672;2023-01-04T14:41:59;13.07;;;8.05;;
62523;SDS011;53689;56.878;60.672;2023-01-04T14:44:28;9.63;;;7.15;;
62523;SDS011;53689;56.878;60.672;2023-01-04T14:46:57;10.95;;;7.20;;
62523;SDS011;53689;56.878;60.672;2023-01-04T14:49:26;10.65;;;7.63;;
62523;SDS011;53689;56.878;60.672;2023-01-04T14:51:56;10.82;;;7.45;;
62523;SDS011;53689;56.878;60.672;2023-01-04T14:54:24;13.40;;;8.82;;
62523;SDS011;53689;56.878;60.672;2023-01-04T14:56:54;8.45;;;6.45;;
62523;SDS011;53689;56.878;60.672;2023-01-04T14:59:23;11.95;;;7.85;;
62523;SDS011;53689;56.878;60.672;2023-01-04T15:01:52;10.13;;;7.28;;
62523;SDS011;53689;56.878;60.672;2023-01-04T15:04:20;13.03;;;8.50;;
62523;SDS011;53689;56.878;60.672;2023-01-04T15:06:49;12.23;;;7.22;;
62523;SDS011;53689;56.878;60.672;2023-01-04T15:09:20;12.60;;;8.13;;
62523;SDS011;53689;56.878;60.672;2023-01-04T15:11:48;9.50;;;7.40;;
62523;SDS011;53689;56.878;60.672;2023-01-04T15:14:16;13.57;;;8.50;;
62523;SDS011;53689;56.878;60.672;2023-01-04T15:16:43;11.90;;;8.15;;
62523;SDS011;53689;56.878;60.672;2023-01-04T15:19:11;10.50;;;7.75;;
62523;SDS011;53689;56.878;60.672;2023-01-04T15:21:39;10.68;;;7.63;;
62523;SDS011;53689;56.878;60.672;2023-01-04T15:24:07;11.80;;;8.07;;
62523;SDS011;53689;56.878;60.672;2023-01-04T15:26:37;12.10;;;8.32;;
62523;SDS011;53689;56.878;60.672;2023-01-04T15:29:05;12.73;;;8.57;;
62523;SDS011;53689;56.878;60.672;2023-01-04T15:31:33;10.93;;;7.80;;
62523;SDS011;53689;56.878;60.672;2023-01-04T15:34:05;11.48;;;7.70;;
62523;SDS011;53689;56.878;60.672;2023-01-04T15:36:33;12.15;;;7.97;;
62523;SDS011;53689;56.878;60.672;2023-01-04T15:39:01;10.27;;;7.43;;
62523;SDS011;53689;56.878;60.672;2023-01-04T15:41:28;11.27;;;7.80;;
62523;SDS011;53689;56.878;60.672;2023-01-04T15:43:57;11.48;;;8.15;;
62523;SDS011;53689;56.878;60.672;2023-01-04T15:46:25;11.57;;;8.10;;
62523;SDS011;53689;56.878;60.672;2023-01-04T15:48:52;12.95;;;8.00;;
62523;SDS011;53689;56.878;60.672;2023-01-04T15:51:20;11.82;;;8.27;;
62523;SDS011;53689;56.878;60.672;2023-01-04T15:53:48;11.80;;;8.45;;